JDC4 KOWB-KIND
Flight info
| Callsign | JDC4 |
|---|---|
| Flight time | 0h 33m |
| Altitude | 23000 |
| Route | EMBRR SMUKE3 |
| Aircraft | CL60/M-SBDE1E2E3FGHIJ1J4J5J7M3RWXYZ/LB1V1D1 |
Departure
| Time | 2026-05-07 01:55 |
|---|---|
| Airport | Owensboro Daviess County Airport (KOWB) |
Arrival
| Time | 2026-05-07 02:28 |
|---|---|
| Airport | Indianapolis International Airport (KIND) |
| Time | Latitude | Longitude | Altitude | Speed | Heading |
|---|---|---|---|---|---|
| 2026-05-07 01:33 | 37.74840 | -87.16408 | 410 ft | 0 kts | 240° |
| 2026-05-07 01:48 | 37.74840 | -87.16409 | 410 ft | 0 kts | 243° |
| 2026-05-07 01:48 | 37.74839 | -87.16416 | 410 ft | 1 kts | 269° |
| 2026-05-07 01:48 | 37.74840 | -87.16431 | 410 ft | 2 kts | 274° |
| 2026-05-07 01:49 | 37.74842 | -87.16472 | 410 ft | 6 kts | 271° |
| 2026-05-07 01:49 | 37.74838 | -87.16517 | 410 ft | 3 kts | 232° |
| 2026-05-07 01:49 | 37.74794 | -87.16524 | 410 ft | 9 kts | 176° |
| 2026-05-07 01:49 | 37.74704 | -87.16519 | 409 ft | 15 kts | 178° |
| 2026-05-07 01:50 | 37.74574 | -87.16513 | 409 ft | 21 kts | 178° |
| 2026-05-07 01:50 | 37.74425 | -87.16505 | 408 ft | 21 kts | 177° |
| 2026-05-07 01:50 | 37.74336 | -87.16514 | 407 ft | 14 kts | 199° |
| 2026-05-07 01:50 | 37.74265 | -87.16554 | 407 ft | 8 kts | 203° |
| 2026-05-07 01:51 | 37.74212 | -87.16563 | 407 ft | 6 kts | 178° |
| 2026-05-07 01:51 | 37.74153 | -87.16561 | 406 ft | 11 kts | 178° |
| 2026-05-07 01:51 | 37.74033 | -87.16555 | 406 ft | 20 kts | 178° |
| 2026-05-07 01:51 | 37.73896 | -87.16548 | 406 ft | 18 kts | 178° |
| 2026-05-07 01:52 | 37.73755 | -87.16541 | 405 ft | 22 kts | 178° |
| 2026-05-07 01:52 | 37.73589 | -87.16532 | 405 ft | 25 kts | 176° |
| 2026-05-07 01:52 | 37.73399 | -87.16524 | 405 ft | 28 kts | 178° |
| 2026-05-07 01:52 | 37.73204 | -87.16515 | 404 ft | 27 kts | 178° |
| 2026-05-07 01:53 | 37.73008 | -87.16505 | 404 ft | 28 kts | 178° |
| 2026-05-07 01:53 | 37.72832 | -87.16496 | 404 ft | 16 kts | 178° |
| 2026-05-07 01:53 | 37.72752 | -87.16493 | 404 ft | 12 kts | 189° |
| 2026-05-07 01:53 | 37.72707 | -87.16547 | 404 ft | 10 kts | 255° |
| 2026-05-07 01:54 | 37.72709 | -87.16629 | 404 ft | 7 kts | 282° |
| 2026-05-07 01:54 | 37.72747 | -87.16672 | 404 ft | 5 kts | 352° |
| 2026-05-07 01:54 | 37.72757 | -87.16672 | 404 ft | 3 kts | 358° |
| 2026-05-07 01:54 | 37.73122 | -87.16690 | 405 ft | 108 kts | 358° |
| 2026-05-07 01:55 | 37.74135 | -87.16741 | 752 ft | 170 kts | 358° |
| 2026-05-07 01:55 | 37.75377 | -87.16815 | 1579 ft | 185 kts | 357° |
| 2026-05-07 01:55 | 37.76611 | -87.16881 | 2334 ft | 174 kts | 358° |
| 2026-05-07 01:55 | 37.77796 | -87.16939 | 3006 ft | 173 kts | 358° |
| 2026-05-07 01:56 | 37.79121 | -87.17026 | 3615 ft | 211 kts | 356° |
| 2026-05-07 01:56 | 37.80628 | -87.17137 | 4342 ft | 221 kts | 356° |
| 2026-05-07 01:56 | 37.82132 | -87.17248 | 5382 ft | 221 kts | 354° |
| 2026-05-07 01:56 | 37.83704 | -87.17369 | 6632 ft | 241 kts | 353° |
| 2026-05-07 01:57 | 37.85421 | -87.17503 | 7903 ft | 259 kts | 351° |
| 2026-05-07 01:57 | 37.87224 | -87.17643 | 9224 ft | 271 kts | 349° |
| 2026-05-07 01:57 | 37.89123 | -87.17790 | 10544 ft | 282 kts | 348° |
| 2026-05-07 01:57 | 37.91103 | -87.17943 | 11853 ft | 292 kts | 347° |
| 2026-05-07 01:58 | 37.93134 | -87.18099 | 13117 ft | 301 kts | 346° |
| 2026-05-07 01:58 | 37.95228 | -87.18258 | 14384 ft | 307 kts | 345° |
| 2026-05-07 01:58 | 37.97378 | -87.18425 | 15454 ft | 318 kts | 343° |
| 2026-05-07 01:58 | 37.99606 | -87.18600 | 16477 ft | 328 kts | 342° |
| 2026-05-07 01:59 | 38.01935 | -87.18780 | 17471 ft | 337 kts | 342° |
| 2026-05-07 01:59 | 38.04269 | -87.18958 | 18476 ft | 344 kts | 341° |
| 2026-05-07 01:59 | 38.06715 | -87.19151 | 19284 ft | 357 kts | 341° |
| 2026-05-07 01:59 | 38.09239 | -87.19352 | 19943 ft | 372 kts | 341° |
| 2026-05-07 02:00 | 38.11888 | -87.19561 | 20582 ft | 386 kts | 341° |
| 2026-05-07 02:00 | 38.14634 | -87.19774 | 21200 ft | 398 kts | 342° |
| 2026-05-07 02:00 | 38.17437 | -87.19988 | 21832 ft | 409 kts | 341° |
| 2026-05-07 02:00 | 38.20318 | -87.20206 | 22464 ft | 419 kts | 341° |
| 2026-05-07 02:01 | 38.23243 | -87.20432 | 22896 ft | 433 kts | 342° |
| 2026-05-07 02:01 | 38.26320 | -87.20679 | 23027 ft | 454 kts | 342° |
| 2026-05-07 02:01 | 38.29575 | -87.20938 | 23033 ft | 475 kts | 343° |
| 2026-05-07 02:01 | 38.32917 | -87.21195 | 23027 ft | 490 kts | 343° |
| 2026-05-07 02:02 | 38.36379 | -87.21451 | 23025 ft | 495 kts | 344° |
| 2026-05-07 02:02 | 38.39799 | -87.21688 | 23035 ft | 483 kts | 344° |
| 2026-05-07 02:02 | 38.43157 | -87.21928 | 23041 ft | 482 kts | 343° |
| 2026-05-07 02:02 | 38.46536 | -87.22180 | 23038 ft | 487 kts | 343° |
| 2026-05-07 02:03 | 38.49912 | -87.22432 | 23047 ft | 487 kts | 343° |
| 2026-05-07 02:03 | 38.53304 | -87.22678 | 23046 ft | 481 kts | 343° |
| 2026-05-07 02:03 | 38.56667 | -87.22925 | 23049 ft | 477 kts | 343° |
| 2026-05-07 02:03 | 38.59994 | -87.23166 | 23044 ft | 479 kts | 344° |
| 2026-05-07 02:04 | 38.63403 | -87.22976 | 23055 ft | 496 kts | 355° |
| 2026-05-07 02:04 | 38.66808 | -87.21957 | 23054 ft | 511 kts | 7° |
| 2026-05-07 02:04 | 38.70106 | -87.20036 | 23047 ft | 525 kts | 19° |
| 2026-05-07 02:04 | 38.73245 | -87.17694 | 23042 ft | 525 kts | 21° |
| 2026-05-07 02:05 | 38.76416 | -87.15318 | 22968 ft | 526 kts | 21° |
| 2026-05-07 02:05 | 38.79581 | -87.12945 | 22453 ft | 522 kts | 21° |
| 2026-05-07 02:05 | 38.82635 | -87.10648 | 21846 ft | 511 kts | 21° |
| 2026-05-07 02:05 | 38.85697 | -87.08344 | 21178 ft | 500 kts | 21° |
| 2026-05-07 02:06 | 38.88684 | -87.06099 | 20515 ft | 491 kts | 21° |
| 2026-05-07 02:06 | 38.91605 | -87.03904 | 19869 ft | 482 kts | 21° |
| 2026-05-07 02:06 | 38.94477 | -87.01744 | 19243 ft | 474 kts | 21° |
| 2026-05-07 02:06 | 38.97315 | -86.99650 | 18627 ft | 466 kts | 20° |
| 2026-05-07 02:07 | 39.00154 | -86.97598 | 18151 ft | 458 kts | 20° |
| 2026-05-07 02:07 | 39.05669 | -86.93636 | 17388 ft | 449 kts | 20° |
| 2026-05-07 02:07 | 39.08414 | -86.91666 | 17124 ft | 445 kts | 20° |
| 2026-05-07 02:08 | 39.11142 | -86.89696 | 16872 ft | 443 kts | 21° |
| 2026-05-07 02:08 | 39.13803 | -86.87654 | 16610 ft | 440 kts | 23° |
| 2026-05-07 02:08 | 39.16397 | -86.85628 | 16375 ft | 438 kts | 23° |
| 2026-05-07 02:08 | 39.19028 | -86.83572 | 16130 ft | 436 kts | 23° |
| 2026-05-07 02:09 | 39.21621 | -86.81548 | 15877 ft | 434 kts | 24° |
| 2026-05-07 02:09 | 39.24204 | -86.79530 | 15627 ft | 430 kts | 24° |
| 2026-05-07 02:09 | 39.26741 | -86.77477 | 15386 ft | 429 kts | 26° |
| 2026-05-07 02:09 | 39.29206 | -86.75253 | 15116 ft | 423 kts | 28° |
| 2026-05-07 02:10 | 39.31546 | -86.73086 | 14888 ft | 408 kts | 28° |
| 2026-05-07 02:10 | 39.33796 | -86.71005 | 14569 ft | 393 kts | 28° |
| 2026-05-07 02:10 | 39.36019 | -86.68956 | 14128 ft | 386 kts | 28° |
| 2026-05-07 02:10 | 39.38230 | -86.66926 | 13679 ft | 390 kts | 28° |
| 2026-05-07 02:11 | 39.40477 | -86.64922 | 13240 ft | 389 kts | 24° |
| 2026-05-07 02:11 | 39.42837 | -86.63274 | 12798 ft | 385 kts | 20° |
| 2026-05-07 02:11 | 39.45189 | -86.61701 | 12365 ft | 376 kts | 21° |
| 2026-05-07 02:11 | 39.47474 | -86.60161 | 11946 ft | 363 kts | 20° |
| 2026-05-07 02:12 | 39.49697 | -86.58663 | 11532 ft | 350 kts | 21° |
| 2026-05-07 02:12 | 39.51797 | -86.57246 | 11141 ft | 335 kts | 21° |
| 2026-05-07 02:12 | 39.53811 | -86.55875 | 10786 ft | 321 kts | 22° |
| 2026-05-07 02:12 | 39.55726 | -86.54452 | 10404 ft | 309 kts | 25° |
| 2026-05-07 02:13 | 39.57507 | -86.53009 | 10082 ft | 295 kts | 26° |
| 2026-05-07 02:13 | 39.59206 | -86.51627 | 9755 ft | 283 kts | 26° |
| 2026-05-07 02:13 | 39.60873 | -86.50275 | 9464 ft | 278 kts | 26° |
| 2026-05-07 02:13 | 39.62516 | -86.48946 | 9106 ft | 275 kts | 26° |
| 2026-05-07 02:14 | 39.64123 | -86.47644 | 8800 ft | 271 kts | 26° |
| 2026-05-07 02:14 | 39.65712 | -86.46356 | 8489 ft | 267 kts | 27° |
| 2026-05-07 02:14 | 39.67289 | -86.45077 | 8199 ft | 260 kts | 27° |
| 2026-05-07 02:14 | 39.68838 | -86.43819 | 7898 ft | 257 kts | 27° |
| 2026-05-07 02:15 | 39.70338 | -86.42605 | 7590 ft | 253 kts | 27° |
| 2026-05-07 02:15 | 39.71847 | -86.41413 | 7230 ft | 252 kts | 27° |
| 2026-05-07 02:15 | 39.73336 | -86.40241 | 6970 ft | 246 kts | 27° |
| 2026-05-07 02:15 | 39.74784 | -86.39099 | 6722 ft | 241 kts | 27° |
| 2026-05-07 02:16 | 39.76205 | -86.37980 | 6480 ft | 236 kts | 27° |
| 2026-05-07 02:16 | 39.77591 | -86.36886 | 6219 ft | 232 kts | 27° |
| 2026-05-07 02:16 | 39.78943 | -86.35759 | 5988 ft | 228 kts | 34° |
| 2026-05-07 02:16 | 39.80103 | -86.34355 | 5680 ft | 229 kts | 41° |
| 2026-05-07 02:17 | 39.81229 | -86.32879 | 5333 ft | 229 kts | 41° |
| 2026-05-07 02:17 | 39.82359 | -86.31404 | 5020 ft | 227 kts | 41° |
| 2026-05-07 02:17 | 39.83459 | -86.29968 | 4718 ft | 225 kts | 41° |
| 2026-05-07 02:17 | 39.84576 | -86.28513 | 4383 ft | 224 kts | 41° |
| 2026-05-07 02:18 | 39.85674 | -86.27081 | 4071 ft | 222 kts | 41° |
| 2026-05-07 02:18 | 39.86747 | -86.25680 | 3976 ft | 219 kts | 40° |
| 2026-05-07 02:18 | 39.87834 | -86.24262 | 3975 ft | 220 kts | 40° |
| 2026-05-07 02:18 | 39.88929 | -86.22832 | 3983 ft | 221 kts | 41° |
| 2026-05-07 02:19 | 39.90013 | -86.21413 | 3980 ft | 220 kts | 40° |
| 2026-05-07 02:19 | 39.91092 | -86.20003 | 3978 ft | 221 kts | 40° |
| 2026-05-07 02:19 | 39.92171 | -86.18591 | 3978 ft | 220 kts | 40° |
| 2026-05-07 02:19 | 39.93267 | -86.17158 | 3982 ft | 220 kts | 41° |
| 2026-05-07 02:20 | 39.94352 | -86.15738 | 3979 ft | 220 kts | 41° |
| 2026-05-07 02:20 | 39.95445 | -86.14307 | 3979 ft | 221 kts | 40° |
| 2026-05-07 02:20 | 39.96518 | -86.12884 | 3976 ft | 222 kts | 45° |
| 2026-05-07 02:20 | 39.97185 | -86.11059 | 3978 ft | 224 kts | 82° |
| 2026-05-07 02:21 | 39.96858 | -86.09029 | 3974 ft | 242 kts | 120° |
| 2026-05-07 02:21 | 39.95770 | -86.07325 | 3971 ft | 247 kts | 134° |
| 2026-05-07 02:21 | 39.94566 | -86.05731 | 3972 ft | 249 kts | 135° |
| 2026-05-07 02:21 | 39.93388 | -86.04174 | 3989 ft | 233 kts | 135° |
| 2026-05-07 02:22 | 39.92282 | -86.02720 | 4011 ft | 215 kts | 135° |
| 2026-05-07 02:22 | 39.91244 | -86.01354 | 4003 ft | 209 kts | 135° |
| 2026-05-07 02:22 | 39.90063 | -86.00332 | 3969 ft | 205 kts | 170° |
| 2026-05-07 02:22 | 39.88638 | -86.00500 | 3970 ft | 208 kts | 213° |
| 2026-05-07 02:23 | 39.87630 | -86.01860 | 3969 ft | 213 kts | 249° |
| 2026-05-07 02:23 | 39.87088 | -86.03674 | 3973 ft | 219 kts | 256° |
| 2026-05-07 02:23 | 39.86602 | -86.05570 | 3973 ft | 222 kts | 255° |
| 2026-05-07 02:23 | 39.86108 | -86.07555 | 3969 ft | 237 kts | 257° |
| 2026-05-07 02:24 | 39.85592 | -86.09624 | 3968 ft | 241 kts | 256° |
| 2026-05-07 02:24 | 39.85069 | -86.11732 | 3975 ft | 243 kts | 256° |
| 2026-05-07 02:24 | 39.84545 | -86.13827 | 3953 ft | 245 kts | 256° |
| 2026-05-07 02:24 | 39.83800 | -86.15845 | 3657 ft | 253 kts | 233° |
| 2026-05-07 02:25 | 39.82464 | -86.17318 | 3364 ft | 254 kts | 223° |
| 2026-05-07 02:25 | 39.81108 | -86.18793 | 3056 ft | 250 kts | 228° |
| 2026-05-07 02:25 | 39.79848 | -86.20373 | 2925 ft | 251 kts | 230° |
| 2026-05-07 02:25 | 39.78608 | -86.21952 | 2606 ft | 244 kts | 229° |
| 2026-05-07 02:26 | 39.77463 | -86.23402 | 2204 ft | 218 kts | 230° |
| 2026-05-07 02:26 | 39.76448 | -86.24686 | 1879 ft | 189 kts | 230° |
| 2026-05-07 02:26 | 39.75571 | -86.25796 | 1662 ft | 158 kts | 231° |
| 2026-05-07 02:26 | 39.74840 | -86.26712 | 1352 ft | 138 kts | 232° |
| 2026-05-07 02:27 | 39.74169 | -86.27579 | 1168 ft | 133 kts | 229° |
| 2026-05-07 02:27 | 39.73504 | -86.28428 | 1019 ft | 133 kts | 229° |
| 2026-05-07 02:27 | 39.72851 | -86.29264 | 843 ft | 130 kts | 228° |
| 2026-05-07 02:27 | 39.72251 | -86.30032 | 771 ft | 106 kts | 226° |
| 2026-05-07 02:28 | 39.71854 | -86.30535 | 761 ft | 56 kts | 225° |
| 2026-05-07 02:28 | 39.71627 | -86.30824 | 757 ft | 38 kts | 225° |
| 2026-05-07 02:28 | 39.71478 | -86.31015 | 754 ft | 20 kts | 227° |
| 2026-05-07 02:28 | 39.71469 | -86.31137 | 753 ft | 11 kts | 311° |
| 2026-05-07 02:29 | 39.71513 | -86.31197 | 752 ft | 6 kts | 315° |
| 2026-05-07 02:29 | 39.71552 | -86.31247 | 752 ft | 2 kts | 317° |
| 2026-05-07 02:29 | 39.71571 | -86.31222 | 752 ft | 7 kts | 55° |
| 2026-05-07 02:29 | 39.71624 | -86.31152 | 753 ft | 13 kts | 45° |
| 2026-05-07 02:30 | 39.71696 | -86.31061 | 754 ft | 14 kts | 45° |
| 2026-05-07 02:30 | 39.71766 | -86.30969 | 755 ft | 13 kts | 45° |
| 2026-05-07 02:30 | 39.71833 | -86.30885 | 757 ft | 13 kts | 45° |
| 2026-05-07 02:30 | 39.71912 | -86.30782 | 758 ft | 17 kts | 44° |
| 2026-05-07 02:31 | 39.72001 | -86.30671 | 759 ft | 17 kts | 45° |
| 2026-05-07 02:31 | 39.72087 | -86.30560 | 761 ft | 17 kts | 45° |
| 2026-05-07 02:31 | 39.72176 | -86.30447 | 763 ft | 19 kts | 45° |
| 2026-05-07 02:31 | 39.72285 | -86.30311 | 765 ft | 21 kts | 45° |
| 2026-05-07 02:32 | 39.72387 | -86.30179 | 768 ft | 20 kts | 46° |
| 2026-05-07 02:32 | 39.72488 | -86.30048 | 770 ft | 21 kts | 44° |
| 2026-05-07 02:32 | 39.72593 | -86.29916 | 773 ft | 19 kts | 45° |
| 2026-05-07 02:32 | 39.72688 | -86.29795 | 775 ft | 18 kts | 45° |
| 2026-05-07 02:33 | 39.72773 | -86.29684 | 777 ft | 17 kts | 45° |
| 2026-05-07 02:33 | 39.72864 | -86.29569 | 779 ft | 19 kts | 44° |
| 2026-05-07 02:33 | 39.72968 | -86.29438 | 781 ft | 21 kts | 44° |
| 2026-05-07 02:33 | 39.73069 | -86.29309 | 783 ft | 19 kts | 45° |
| 2026-05-07 02:34 | 39.73158 | -86.29194 | 786 ft | 17 kts | 45° |
| 2026-05-07 02:34 | 39.73241 | -86.29090 | 787 ft | 15 kts | 45° |
| 2026-05-07 02:34 | 39.73313 | -86.28996 | 789 ft | 11 kts | 45° |
| 2026-05-07 02:34 | 39.73337 | -86.28966 | 789 ft | 4 kts | 45° |
| 2026-05-07 02:35 | 39.73387 | -86.28903 | 790 ft | 13 kts | 45° |
| 2026-05-07 02:35 | 39.73454 | -86.28812 | 791 ft | 13 kts | 45° |
| 2026-05-07 02:35 | 39.73508 | -86.28730 | 792 ft | 9 kts | 70° |
| 2026-05-07 02:35 | 39.73484 | -86.28651 | 793 ft | 11 kts | 135° |
| 2026-05-07 02:36 | 39.73407 | -86.28552 | 794 ft | 18 kts | 135° |
| 2026-05-07 02:36 | 39.73331 | -86.28451 | 795 ft | 12 kts | 134° |
| 2026-05-07 02:36 | 39.73306 | -86.28403 | 796 ft | 6 kts | 94° |
| 2026-05-07 02:36 | 39.73324 | -86.28350 | 796 ft | 7 kts | 45° |